sensor_id;sensor_type;location;lat;lon;timestamp;temperature;humidity
19224;DHT22;9746;47.180;9.776;2023-04-27T09:55:23;19.70;99.90
19224;DHT22;9746;47.180;9.776;2023-04-27T09:58:21;19.80;99.90
19224;DHT22;9746;47.180;9.776;2023-04-27T10:00:58;20.30;99.90
19224;DHT22;9746;47.180;9.776;2023-04-27T10:03:42;20.70;99.90
19224;DHT22;9746;47.180;9.776;2023-04-27T10:06:58;20.90;99.90
19224;DHT22;9746;47.180;9.776;2023-04-27T10:12:33;21.10;99.90
19224;DHT22;9746;47.180;9.776;2023-04-27T10:15:23;21.00;99.90
19224;DHT22;9746;47.180;9.776;2023-04-27T10:17:52;21.20;99.90
19224;DHT22;9746;47.180;9.776;2023-04-27T10:20:28;21.40;99.90
19224;DHT22;9746;47.180;9.776;2023-04-27T10:23:06;21.40;99.90
19224;DHT22;9746;47.180;9.776;2023-04-27T10:25:37;21.70;99.90
19224;DHT22;9746;47.180;9.776;2023-04-27T10:28:15;21.90;99.90
19224;DHT22;9746;47.180;9.776;2023-04-27T10:30:45;22.00;99.90
19224;DHT22;9746;47.180;9.776;2023-04-27T10:33:21;22.30;99.90
19224;DHT22;9746;47.180;9.776;2023-04-27T10:35:58;22.80;99.90
19224;DHT22;9746;47.180;9.776;2023-04-27T10:41:21;23.40;99.90
19224;DHT22;9746;47.180;9.776;2023-04-27T10:43:55;23.60;99.90
19224;DHT22;9746;47.180;9.776;2023-04-27T10:46:49;23.70;99.90
19224;DHT22;9746;47.180;9.776;2023-04-27T10:49:28;24.10;99.90
19224;DHT22;9746;47.180;9.776;2023-04-27T10:51:59;24.10;99.90
19224;DHT22;9746;47.180;9.776;2023-04-27T10:54:36;24.20;99.90
19224;DHT22;9746;47.180;9.776;2023-04-27T10:57:06;24.50;99.90
19224;DHT22;9746;47.180;9.776;2023-04-27T10:59:50;24.60;99.90
19224;DHT22;9746;47.180;9.776;2023-04-27T11:02:24;24.80;99.90
19224;DHT22;9746;47.180;9.776;2023-04-27T11:05:18;24.80;99.90
19224;DHT22;9746;47.180;9.776;2023-04-27T11:07:47;25.20;99.90
19224;DHT22;9746;47.180;9.776;2023-04-27T11:10:21;25.50;99.90
19224;DHT22;9746;47.180;9.776;2023-04-27T11:12:49;25.30;99.90
19224;DHT22;9746;47.180;9.776;2023-04-27T11:15:18;24.80;99.90
19224;DHT22;9746;47.180;9.776;2023-04-27T11:17:45;24.50;99.90
19224;DHT22;9746;47.180;9.776;2023-04-27T11:20:22;24.60;99.90
19224;DHT22;9746;47.180;9.776;2023-04-27T11:22:50;25.20;99.90
19224;DHT22;9746;47.180;9.776;2023-04-27T11:25:26;25.50;99.90
19224;DHT22;9746;47.180;9.776;2023-04-27T11:27:54;25.70;99.90
19224;DHT22;9746;47.180;9.776;2023-04-27T11:30:29;26.00;99.90
19224;DHT22;9746;47.180;9.776;2023-04-27T11:32:57;26.20;99.90
19224;DHT22;9746;47.180;9.776;2023-04-27T11:35:34;26.30;99.90
19224;DHT22;9746;47.180;9.776;2023-04-27T11:38:02;26.30;99.90
19224;DHT22;9746;47.180;9.776;2023-04-27T11:40:29;26.30;99.90
19224;DHT22;9746;47.180;9.776;2023-04-27T11:42:59;26.70;99.90
19224;DHT22;9746;47.180;9.776;2023-04-27T11:45:36;27.10;99.90
19224;DHT22;9746;47.180;9.776;2023-04-27T11:48:12;26.90;99.90
19224;DHT22;9746;47.180;9.776;2023-04-27T11:50:50;26.50;99.90
19224;DHT22;9746;47.180;9.776;2023-04-27T11:53:28;26.30;99.90
19224;DHT22;9746;47.180;9.776;2023-04-27T11:55:59;26.20;99.90
19224;DHT22;9746;47.180;9.776;2023-04-27T11:58:38;26.00;99.90
19224;DHT22;9746;47.180;9.776;2023-04-27T12:01:08;26.50;99.90
19224;DHT22;9746;47.180;9.776;2023-04-27T12:03:38;26.70;99.90
19224;DHT22;9746;47.180;9.776;2023-04-27T12:06:06;26.50;99.70
19224;DHT22;9746;47.180;9.776;2023-04-27T12:11:27;26.90;99.90
19224;DHT22;9746;47.180;9.776;2023-04-27T12:13:55;26.90;99.90
19224;DHT22;9746;47.180;9.776;2023-04-27T12:16:24;26.80;99.70
19224;DHT22;9746;47.180;9.776;2023-04-27T12:18:51;26.70;99.70
19224;DHT22;9746;47.180;9.776;2023-04-27T12:21:20;26.70;99.40
19224;DHT22;9746;47.180;9.776;2023-04-27T12:23:49;26.80;98.80
19224;DHT22;9746;47.180;9.776;2023-04-27T12:26:17;27.00;99.10
19224;DHT22;9746;47.180;9.776;2023-04-27T12:28:58;27.70;98.50
19224;DHT22;9746;47.180;9.776;2023-04-27T12:31:33;28.40;97.30
19224;DHT22;9746;47.180;9.776;2023-04-27T12:34:09;28.80;96.10
19224;DHT22;9746;47.180;9.776;2023-04-27T12:36:37;29.20;96.70
19224;DHT22;9746;47.180;9.776;2023-04-27T12:39:15;29.20;94.70
19224;DHT22;9746;47.180;9.776;2023-04-27T12:41:43;29.20;95.20
19224;DHT22;9746;47.180;9.776;2023-04-27T12:44:11;29.30;94.20
19224;DHT22;9746;47.180;9.776;2023-04-27T12:46:40;28.80;93.10
19224;DHT22;9746;47.180;9.776;2023-04-27T12:49:11;28.30;92.20
19224;DHT22;9746;47.180;9.776;2023-04-27T12:51:41;26.80;94.10
19224;DHT22;9746;47.180;9.776;2023-04-27T12:54:09;25.90;94.50
19224;DHT22;9746;47.180;9.776;2023-04-27T12:56:40;25.00;96.10
19224;DHT22;9746;47.180;9.776;2023-04-27T12:59:09;24.30;97.20
19224;DHT22;9746;47.180;9.776;2023-04-27T13:01:39;24.40;97.80
19224;DHT22;9746;47.180;9.776;2023-04-27T13:04:19;25.30;97.70
19224;DHT22;9746;47.180;9.776;2023-04-27T13:06:50;26.20;97.30
19224;DHT22;9746;47.180;9.776;2023-04-27T13:09:23;27.10;95.70
19224;DHT22;9746;47.180;9.776;2023-04-27T13:11:51;28.30;96.50
19224;DHT22;9746;47.180;9.776;2023-04-27T13:14:20;29.40;94.00
19224;DHT22;9746;47.180;9.776;2023-04-27T13:16:51;29.90;93.20
19224;DHT22;9746;47.180;9.776;2023-04-27T13:19:26;30.20;92.60
19224;DHT22;9746;47.180;9.776;2023-04-27T13:21:53;30.10;91.60
19224;DHT22;9746;47.180;9.776;2023-04-27T13:24:26;29.60;92.10
19224;DHT22;9746;47.180;9.776;2023-04-27T13:26:54;29.00;92.10
19224;DHT22;9746;47.180;9.776;2023-04-27T13:29:36;28.50;92.80
19224;DHT22;9746;47.180;9.776;2023-04-27T13:32:08;27.50;92.80
19224;DHT22;9746;47.180;9.776;2023-04-27T13:34:36;27.40;93.30
19224;DHT22;9746;47.180;9.776;2023-04-27T13:37:04;28.10;93.50
19224;DHT22;9746;47.180;9.776;2023-04-27T13:39:32;28.80;93.10
19224;DHT22;9746;47.180;9.776;2023-04-27T13:42:00;29.40;93.70
19224;DHT22;9746;47.180;9.776;2023-04-27T13:44:52;29.90;91.30
19224;DHT22;9746;47.180;9.776;2023-04-27T13:47:22;30.80;89.60
19224;DHT22;9746;47.180;9.776;2023-04-27T13:49:49;31.00;89.40
19224;DHT22;9746;47.180;9.776;2023-04-27T13:52:18;31.30;87.70
19224;DHT22;9746;47.180;9.776;2023-04-27T13:54:52;31.30;88.40
19224;DHT22;9746;47.180;9.776;2023-04-27T13:57:19;31.20;86.00
19224;DHT22;9746;47.180;9.776;2023-04-27T13:59:46;32.20;87.50
19224;DHT22;9746;47.180;9.776;2023-04-27T14:02:14;31.90;85.20
19224;DHT22;9746;47.180;9.776;2023-04-27T14:04:48;31.40;85.60
19224;DHT22;9746;47.180;9.776;2023-04-27T14:07:19;30.80;85.00
19224;DHT22;9746;47.180;9.776;2023-04-27T14:09:55;30.40;85.70
19224;DHT22;9746;47.180;9.776;2023-04-27T14:12:26;30.90;87.30
19224;DHT22;9746;47.180;9.776;2023-04-27T14:14:55;31.10;85.30
19224;DHT22;9746;47.180;9.776;2023-04-27T14:17:25;31.80;85.40
19224;DHT22;9746;47.180;9.776;2023-04-27T14:19:58;32.00;82.70
19224;DHT22;9746;47.180;9.776;2023-04-27T14:22:25;31.90;81.50
19224;DHT22;9746;47.180;9.776;2023-04-27T14:25:06;32.10;81.20
19224;DHT22;9746;47.180;9.776;2023-04-27T14:27:33;32.40;82.50
19224;DHT22;9746;47.180;9.776;2023-04-27T14:30:03;32.80;80.00
19224;DHT22;9746;47.180;9.776;2023-04-27T14:32:31;33.00;77.30
19224;DHT22;9746;47.180;9.776;2023-04-27T14:35:00;32.10;77.50
19224;DHT22;9746;47.180;9.776;2023-04-27T14:37:27;32.20;78.60
19224;DHT22;9746;47.180;9.776;2023-04-27T14:39:55;32.60;77.10
19224;DHT22;9746;47.180;9.776;2023-04-27T14:42:23;31.60;77.90
19224;DHT22;9746;47.180;9.776;2023-04-27T14:44:50;31.60;78.40
19224;DHT22;9746;47.180;9.776;2023-04-27T14:47:17;31.90;78.70
19224;DHT22;9746;47.180;9.776;2023-04-27T14:49:45;32.20;76.30
19224;DHT22;9746;47.180;9.776;2023-04-27T14:52:14;33.10;77.00
19224;DHT22;9746;47.180;9.776;2023-04-27T14:54:41;33.70;74.50
19224;DHT22;9746;47.180;9.776;2023-04-27T14:57:08;32.90;75.40
19224;DHT22;9746;47.180;9.776;2023-04-27T14:59:36;33.00;74.50
19224;DHT22;9746;47.180;9.776;2023-04-27T15:02:03;32.40;75.70
19224;DHT22;9746;47.180;9.776;2023-04-27T15:04:30;31.80;75.40
19224;DHT22;9746;47.180;9.776;2023-04-27T15:07:03;31.50;76.10
19224;DHT22;9746;47.180;9.776;2023-04-27T15:09:33;31.30;75.50
19224;DHT22;9746;47.180;9.776;2023-04-27T15:12:09;31.30;76.80
19224;DHT22;9746;47.180;9.776;2023-04-27T15:14:37;31.20;75.30
19224;DHT22;9746;47.180;9.776;2023-04-27T15:17:06;31.30;76.40
19224;DHT22;9746;47.180;9.776;2023-04-27T15:19:33;31.40;75.70
19224;DHT22;9746;47.180;9.776;2023-04-27T15:22:00;31.60;75.80
19224;DHT22;9746;47.180;9.776;2023-04-27T15:24:28;31.40;76.70
19224;DHT22;9746;47.180;9.776;2023-04-27T15:27:03;31.30;76.70
19224;DHT22;9746;47.180;9.776;2023-04-27T15:29:30;30.90;76.10
19224;DHT22;9746;47.180;9.776;2023-04-27T15:32:08;30.50;77.20
19224;DHT22;9746;47.180;9.776;2023-04-27T15:34:35;30.60;77.20
19224;DHT22;9746;47.180;9.776;2023-04-27T15:37:07;30.30;77.40
19224;DHT22;9746;47.180;9.776;2023-04-27T15:39:34;29.80;77.00
19224;DHT22;9746;47.180;9.776;2023-04-27T15:42:04;28.90;78.80
19224;DHT22;9746;47.180;9.776;2023-04-27T15:44:31;29.00;79.20
19224;DHT22;9746;47.180;9.776;2023-04-27T15:47:01;28.80;79.90
19224;DHT22;9746;47.180;9.776;2023-04-27T15:49:28;28.90;80.20
19224;DHT22;9746;47.180;9.776;2023-04-27T15:51:57;29.30;78.80
19224;DHT22;9746;47.180;9.776;2023-04-27T15:54:24;29.50;78.90
19224;DHT22;9746;47.180;9.776;2023-04-27T15:57:12;30.00;78.80
19224;DHT22;9746;47.180;9.776;2023-04-27T15:59:39;30.40;77.60
19224;DHT22;9746;47.180;9.776;2023-04-27T16:02:08;31.00;76.80
19224;DHT22;9746;47.180;9.776;2023-04-27T16:04:38;31.00;77.00
19224;DHT22;9746;47.180;9.776;2023-04-27T16:07:10;31.10;77.00
19224;DHT22;9746;47.180;9.776;2023-04-27T16:09:38;30.80;77.00
19224;DHT22;9746;47.180;9.776;2023-04-27T16:12:07;30.90;76.70
19224;DHT22;9746;47.180;9.776;2023-04-27T16:14:37;30.50;77.40
19224;DHT22;9746;47.180;9.776;2023-04-27T16:17:12;29.70;77.70
19224;DHT22;9746;47.180;9.776;2023-04-27T16:19:40;27.90;80.00
19224;DHT22;9746;47.180;9.776;2023-04-27T16:22:11;26.40;82.50
19224;DHT22;9746;47.180;9.776;2023-04-27T16:24:38;25.20;85.30
19224;DHT22;9746;47.180;9.776;2023-04-27T16:27:35;24.30;87.10
19224;DHT22;9746;47.180;9.776;2023-04-27T16:30:06;23.40;89.30
19224;DHT22;9746;47.180;9.776;2023-04-27T16:32:39;22.70;90.30
19224;DHT22;9746;47.180;9.776;2023-04-27T16:35:07;22.30;90.90
19224;DHT22;9746;47.180;9.776;2023-04-27T16:37:36;22.00;91.20
19224;DHT22;9746;47.180;9.776;2023-04-27T16:40:05;21.60;91.70
19224;DHT22;9746;47.180;9.776;2023-04-27T16:45:27;21.10;92.60
19224;DHT22;9746;47.180;9.776;2023-04-27T16:47:55;20.70;93.00
19224;DHT22;9746;47.180;9.776;2023-04-27T16:50:24;20.60;93.40
19224;DHT22;9746;47.180;9.776;2023-04-27T16:52:52;20.40;93.70
19224;DHT22;9746;47.180;9.776;2023-04-27T16:55:20;20.20;93.90
19224;DHT22;9746;47.180;9.776;2023-04-27T16:57:53;20.10;94.10
19224;DHT22;9746;47.180;9.776;2023-04-27T17:00:21;19.90;94.90
19224;DHT22;9746;47.180;9.776;2023-04-27T17:02:51;19.70;95.00
19224;DHT22;9746;47.180;9.776;2023-04-27T17:05:18;19.60;95.10
19224;DHT22;9746;47.180;9.776;2023-04-27T17:07:52;19.50;95.70
19224;DHT22;9746;47.180;9.776;2023-04-27T17:10:19;19.40;95.80
19224;DHT22;9746;47.180;9.776;2023-04-27T17:12:48;19.40;96.50
19224;DHT22;9746;47.180;9.776;2023-04-27T17:15:18;19.40;96.40
19224;DHT22;9746;47.180;9.776;2023-04-27T17:17:46;19.40;96.30
19224;DHT22;9746;47.180;9.776;2023-04-27T17:20:15;19.20;96.10
19224;DHT22;9746;47.180;9.776;2023-04-27T17:23:05;19.10;96.50
19224;DHT22;9746;47.180;9.776;2023-04-27T17:25:32;19.00;97.80
19224;DHT22;9746;47.180;9.776;2023-04-27T17:28:06;19.00;96.90
19224;DHT22;9746;47.180;9.776;2023-04-27T17:30:33;19.00;97.20
19224;DHT22;9746;47.180;9.776;2023-04-27T17:33:04;18.90;97.10
19224;DHT22;9746;47.180;9.776;2023-04-27T17:35:33;18.80;97.30
19224;DHT22;9746;47.180;9.776;2023-04-27T17:38:03;18.80;97.60
19224;DHT22;9746;47.180;9.776;2023-04-27T17:40:31;18.70;97.40
19224;DHT22;9746;47.180;9.776;2023-04-27T17:43:00;18.60;97.50
19224;DHT22;9746;47.180;9.776;2023-04-27T17:45:27;18.60;98.00
19224;DHT22;9746;47.180;9.776;2023-04-27T17:47:57;18.50;98.00
19224;DHT22;9746;47.180;9.776;2023-04-27T17:50:26;18.40;98.70
19224;DHT22;9746;47.180;9.776;2023-04-27T17:53:01;18.30;99.20
19224;DHT22;9746;47.180;9.776;2023-04-27T17:55:28;18.10;99.90
19224;DHT22;9746;47.180;9.776;2023-04-27T17:58:02;17.90;99.90
19224;DHT22;9746;47.180;9.776;2023-04-27T18:00:31;17.70;99.90
19224;DHT22;9746;47.180;9.776;2023-04-27T18:03:00;17.50;99.90
19224;DHT22;9746;47.180;9.776;2023-04-27T18:05:31;17.30;99.90
19224;DHT22;9746;47.180;9.776;2023-04-27T18:08:12;17.10;99.90
19224;DHT22;9746;47.180;9.776;2023-04-27T18:10:47;16.90;99.90
19224;DHT22;9746;47.180;9.776;2023-04-27T18:13:22;16.80;99.90
19224;DHT22;9746;47.180;9.776;2023-04-27T18:15:56;16.70;99.90
19224;DHT22;9746;47.180;9.776;2023-04-27T18:18:25;16.60;99.90
19224;DHT22;9746;47.180;9.776;2023-04-27T18:20:52;16.60;99.90
19224;DHT22;9746;47.180;9.776;2023-04-27T18:23:22;16.50;99.90
19224;DHT22;9746;47.180;9.776;2023-04-27T18:25:52;16.40;99.90
19224;DHT22;9746;47.180;9.776;2023-04-27T18:28:25;16.20;99.90
19224;DHT22;9746;47.180;9.776;2023-04-27T18:30:52;16.10;99.90
19224;DHT22;9746;47.180;9.776;2023-04-27T18:33:28;16.00;99.90
19224;DHT22;9746;47.180;9.776;2023-04-27T18:35:57;15.80;99.90
19224;DHT22;9746;47.180;9.776;2023-04-27T18:38:28;15.60;99.90
19224;DHT22;9746;47.180;9.776;2023-04-27T18:40:56;15.50;99.90
19224;DHT22;9746;47.180;9.776;2023-04-27T18:43:23;15.40;99.90
19224;DHT22;9746;47.180;9.776;2023-04-27T18:45:50;15.30;99.90
19224;DHT22;9746;47.180;9.776;2023-04-27T18:48:24;15.20;99.90
19224;DHT22;9746;47.180;9.776;2023-04-27T18:50:51;15.20;99.90
19224;DHT22;9746;47.180;9.776;2023-04-27T18:53:18;15.10;99.90
19224;DHT22;9746;47.180;9.776;2023-04-27T18:55:47;15.00;99.90
19224;DHT22;9746;47.180;9.776;2023-04-27T18:58:52;14.90;99.90
19224;DHT22;9746;47.180;9.776;2023-04-27T19:01:20;14.80;99.90
19224;DHT22;9746;47.180;9.776;2023-04-27T19:03:49;14.80;99.90
19224;DHT22;9746;47.180;9.776;2023-04-27T19:06:17;14.60;99.90
